Terminal Aerodrome Forecast
Issued by NWS Charleston, SC

Home | Current Version | Previous Version | Text Only | Print | Product List | Glossary On
Versions: 1 2 3 4 5 6 7 8 9 10 11 12 13 14 15 16 17 18 19 20 21 22
000
FTUS42 KCHS 242358 CCB
TAFSAV
TAF COR
KSAV 242358Z 2500/2524 19007KT P6SM VCTS SCT035CB BKN060
      TEMPO 2500/2502 6SM -TSRA BR SCT008 BKN035CB
     FM250300 21004KT P6SM SCT015 BKN060
     FM250900 24004KT P6SM SCT008 BKN015
     FM251600 24007KT P6SM VCTS SCT030CB BKN060=

USA.gov is the U.S. government's official web portal to all federal, state and local government web resources and services.